createdAt,value
2018-12-07T00:02:00.000Z,99224
2018-12-07T00:07:00.000Z,99230
2018-12-07T00:12:00.000Z,99233
2018-12-07T00:17:00.000Z,99223
2018-12-07T00:23:00.000Z,99207
2018-12-07T00:28:00.000Z,99213
2018-12-07T00:33:00.000Z,99203
2018-12-07T00:38:00.000Z,99207
2018-12-07T00:43:00.000Z,99212
2018-12-07T00:48:00.000Z,99197
2018-12-07T00:53:00.000Z,99215
2018-12-07T00:58:00.000Z,99212
2018-12-07T01:03:00.000Z,99195
2018-12-07T01:08:00.000Z,99203
2018-12-07T01:13:00.000Z,99199
2018-12-07T01:18:00.000Z,99181
2018-12-07T01:23:00.000Z,99194
2018-12-07T01:28:00.000Z,99193
2018-12-07T01:33:00.000Z,99181
2018-12-07T01:38:00.000Z,99181
2018-12-07T01:43:00.000Z,99173
2018-12-07T01:48:00.000Z,99185
2018-12-07T01:53:00.000Z,99191
2018-12-07T01:58:00.000Z,99174
2018-12-07T02:03:00.000Z,99174
2018-12-07T02:08:00.000Z,99173
2018-12-07T02:13:00.000Z,99154
2018-12-07T02:18:00.000Z,99141
2018-12-07T02:23:00.000Z,99127
2018-12-07T02:28:00.000Z,99118
2018-12-07T02:33:00.000Z,99119
2018-12-07T02:38:00.000Z,99105
2018-12-07T02:43:00.000Z,99109
2018-12-07T02:48:00.000Z,99094
2018-12-07T02:53:00.000Z,99096
2018-12-07T02:58:00.000Z,99100
2018-12-07T03:03:00.000Z,99107
2018-12-07T03:08:00.000Z,99095
2018-12-07T03:13:00.000Z,99068
2018-12-07T03:18:00.000Z,99081
2018-12-07T03:23:00.000Z,99079
2018-12-07T03:28:00.000Z,99069
2018-12-07T03:33:00.000Z,99070
2018-12-07T03:38:00.000Z,99066
2018-12-07T03:43:00.000Z,99065
2018-12-07T03:48:00.000Z,99053
2018-12-07T03:53:00.000Z,99069
2018-12-07T03:58:00.000Z,99064
2018-12-07T04:03:00.000Z,99057
2018-12-07T04:08:00.000Z,99057
2018-12-07T04:13:00.000Z,99053
2018-12-07T04:18:00.000Z,99056
2018-12-07T04:23:00.000Z,99044
2018-12-07T04:28:00.000Z,99044
2018-12-07T04:33:00.000Z,99036
2018-12-07T04:38:00.000Z,99029
2018-12-07T04:43:00.000Z,99030
2018-12-07T04:48:00.000Z,99020
2018-12-07T04:53:00.000Z,98999
2018-12-07T04:58:00.000Z,98991
2018-12-07T05:03:00.000Z,98999
2018-12-07T05:08:00.000Z,99002
2018-12-07T05:13:00.000Z,99003
2018-12-07T05:18:00.000Z,98982
2018-12-07T05:23:00.000Z,98978
2018-12-07T05:28:00.000Z,98959
2018-12-07T05:33:00.000Z,98971
2018-12-07T05:38:00.000Z,98943
2018-12-07T05:43:00.000Z,98951
2018-12-07T05:48:00.000Z,98952
2018-12-07T05:53:00.000Z,98938
2018-12-07T05:58:00.000Z,98938
2018-12-07T06:03:00.000Z,98933
2018-12-07T06:08:00.000Z,98926
2018-12-07T06:13:00.000Z,98922
2018-12-07T06:18:00.000Z,98928
2018-12-07T06:24:00.000Z,98931
2018-12-07T06:29:00.000Z,98943
2018-12-07T06:34:00.000Z,98934
2018-12-07T06:39:00.000Z,98925
2018-12-07T06:44:00.000Z,98917
2018-12-07T06:49:00.000Z,98923
2018-12-07T06:54:00.000Z,98919
2018-12-07T06:59:00.000Z,98928
2018-12-07T07:04:00.000Z,98920
2018-12-07T07:09:00.000Z,98916
2018-12-07T07:14:00.000Z,98916
2018-12-07T07:19:00.000Z,98915
2018-12-07T07:24:00.000Z,98903
2018-12-07T07:29:00.000Z,98903
2018-12-07T07:34:00.000Z,98903
2018-12-07T07:39:00.000Z,98891
2018-12-07T07:44:00.000Z,98896
2018-12-07T07:49:00.000Z,98892
2018-12-07T07:54:00.000Z,98897
2018-12-07T07:59:00.000Z,98903
2018-12-07T08:04:00.000Z,98898
2018-12-07T08:09:00.000Z,98886
2018-12-07T08:14:00.000Z,98880
2018-12-07T08:19:00.000Z,98893
2018-12-07T08:24:00.000Z,98880
2018-12-07T08:29:00.000Z,98879
2018-12-07T08:34:00.000Z,98880
2018-12-07T08:39:00.000Z,98887
2018-12-07T08:44:00.000Z,98878
2018-12-07T08:49:00.000Z,98884
2018-12-07T08:54:00.000Z,98876
2018-12-07T08:59:00.000Z,98871
2018-12-07T09:04:00.000Z,98874
2018-12-07T09:09:00.000Z,98874
2018-12-07T09:14:00.000Z,98867
2018-12-07T09:19:00.000Z,98855
2018-12-07T09:24:00.000Z,98863
2018-12-07T09:29:00.000Z,98839
2018-12-07T09:34:00.000Z,98831
2018-12-07T09:39:00.000Z,98822
2018-12-07T09:44:00.000Z,98817
2018-12-07T09:49:00.000Z,98802
2018-12-07T09:54:00.000Z,98803
2018-12-07T09:59:00.000Z,98796
2018-12-07T10:04:00.000Z,98788
2018-12-07T10:09:00.000Z,98762
2018-12-07T10:14:00.000Z,98761
2018-12-07T10:19:00.000Z,98740
2018-12-07T10:24:00.000Z,98729
2018-12-07T10:29:00.000Z,98733
2018-12-07T10:34:00.000Z,98716
2018-12-07T10:39:00.000Z,98707
2018-12-07T10:44:00.000Z,98700
2018-12-07T10:49:00.000Z,98700
2018-12-07T10:54:00.000Z,98682
2018-12-07T10:59:00.000Z,98683
2018-12-07T11:04:00.000Z,98678
2018-12-07T11:09:00.000Z,98660
2018-12-07T11:14:00.000Z,98668
2018-12-07T11:19:00.000Z,98667
2018-12-07T11:24:00.000Z,98657
2018-12-07T11:29:00.000Z,98656
2018-12-07T11:34:00.000Z,98648
2018-12-07T11:39:00.000Z,98627
2018-12-07T11:44:00.000Z,98631
2018-12-07T11:49:00.000Z,98617
2018-12-07T11:54:00.000Z,98609
2018-12-07T11:59:00.000Z,98612
2018-12-07T12:04:00.000Z,98596
2018-12-07T12:09:00.000Z,98579
2018-12-07T12:14:00.000Z,98588
2018-12-07T12:20:00.000Z,98579
2018-12-07T12:25:00.000Z,98580
2018-12-07T12:30:00.000Z,98563
2018-12-07T12:35:00.000Z,98553
2018-12-07T12:40:00.000Z,98557
2018-12-07T12:45:00.000Z,98550
2018-12-07T12:50:00.000Z,98546
2018-12-07T12:55:00.000Z,98548
2018-12-07T13:00:00.000Z,98537
2018-12-07T13:05:00.000Z,98529
2018-12-07T13:10:00.000Z,98531
2018-12-07T13:15:00.000Z,98526
2018-12-07T13:20:00.000Z,98516
2018-12-07T13:25:00.000Z,98508
2018-12-07T13:30:00.000Z,98489
2018-12-07T13:35:00.000Z,98493
2018-12-07T13:40:00.000Z,98480
2018-12-07T13:45:00.000Z,98465
2018-12-07T13:50:00.000Z,98464
2018-12-07T13:55:00.000Z,98445
2018-12-07T14:00:00.000Z,98452
2018-12-07T14:05:00.000Z,98442
2018-12-07T14:10:00.000Z,98441
2018-12-07T14:15:00.000Z,98440
2018-12-07T14:20:00.000Z,98426
2018-12-07T14:25:00.000Z,98416
2018-12-07T14:30:00.000Z,98418
2018-12-07T14:35:00.000Z,98405
2018-12-07T14:40:00.000Z,98399
2018-12-07T14:45:00.000Z,98391
2018-12-07T14:50:00.000Z,98377
2018-12-07T14:55:00.000Z,98372
2018-12-07T15:00:00.000Z,98359
2018-12-07T15:05:00.000Z,98356
2018-12-07T15:10:00.000Z,98347
2018-12-07T15:15:00.000Z,98325
2018-12-07T15:20:00.000Z,98308
2018-12-07T15:25:00.000Z,98309
2018-12-07T15:30:00.000Z,98314
2018-12-07T15:35:00.000Z,98293
2018-12-07T15:40:00.000Z,98282
2018-12-07T15:45:00.000Z,98290
2018-12-07T15:50:00.000Z,98292
2018-12-07T15:55:00.000Z,98278
2018-12-07T16:00:00.000Z,98243
2018-12-07T16:05:00.000Z,98250
2018-12-07T16:10:00.000Z,98229
2018-12-07T16:15:00.000Z,98222
2018-12-07T16:20:00.000Z,98224
2018-12-07T16:25:00.000Z,98212
2018-12-07T16:30:00.000Z,98216
2018-12-07T16:35:00.000Z,98210
2018-12-07T16:40:00.000Z,98203
2018-12-07T16:45:00.000Z,98208
2018-12-07T16:50:00.000Z,98193
2018-12-07T16:55:00.000Z,98192
2018-12-07T17:00:00.000Z,98185
2018-12-07T17:05:00.000Z,98180
2018-12-07T17:11:00.000Z,98165
2018-12-07T17:16:00.000Z,98161
2018-12-07T17:21:00.000Z,98141
2018-12-07T17:26:00.000Z,98147
2018-12-07T17:31:00.000Z,98139
2018-12-07T17:36:00.000Z,98135
2018-12-07T17:41:00.000Z,98119
2018-12-07T17:46:00.000Z,98108
2018-12-07T17:51:00.000Z,98104
2018-12-07T17:56:00.000Z,98094
2018-12-07T18:01:00.000Z,98093
2018-12-07T18:06:00.000Z,98094
2018-12-07T18:11:00.000Z,98069
2018-12-07T18:16:00.000Z,98077
2018-12-07T18:21:00.000Z,98080
2018-12-07T18:26:00.000Z,98076
2018-12-07T18:31:00.000Z,98070
2018-12-07T18:36:00.000Z,98065
2018-12-07T18:41:00.000Z,98049
2018-12-07T18:46:00.000Z,98043
2018-12-07T18:51:00.000Z,98042
2018-12-07T18:56:00.000Z,98030
2018-12-07T19:01:00.000Z,98024
2018-12-07T19:06:00.000Z,98012
2018-12-07T19:11:00.000Z,98003
2018-12-07T19:16:00.000Z,97996
2018-12-07T19:21:00.000Z,97977
2018-12-07T19:26:00.000Z,97975
2018-12-07T19:31:00.000Z,97938
2018-12-07T19:36:00.000Z,97952
2018-12-07T19:41:00.000Z,97948
2018-12-07T19:46:00.000Z,97963
2018-12-07T19:51:00.000Z,97938
2018-12-07T19:56:00.000Z,97956
2018-12-07T20:01:00.000Z,97893
2018-12-07T20:06:00.000Z,97828
2018-12-07T20:11:00.000Z,97946
2018-12-07T20:16:00.000Z,97892
2018-12-07T20:21:00.000Z,97907
2018-12-07T20:26:00.000Z,97911
2018-12-07T20:31:00.000Z,97844
2018-12-07T20:36:00.000Z,97910
2018-12-07T20:41:00.000Z,97895
2018-12-07T20:46:00.000Z,97858
2018-12-07T20:51:00.000Z,97859
2018-12-07T20:56:00.000Z,97874
2018-12-07T21:01:00.000Z,97921
2018-12-07T21:06:00.000Z,97869
2018-12-07T21:11:00.000Z,97901
2018-12-07T21:16:00.000Z,97882
2018-12-07T21:21:00.000Z,97904
2018-12-07T21:26:00.000Z,97959
2018-12-07T21:31:00.000Z,97932
2018-12-07T21:36:00.000Z,97873
2018-12-07T21:41:00.000Z,97889
2018-12-07T21:47:00.000Z,97854
2018-12-07T21:52:00.000Z,97782
2018-12-07T21:57:00.000Z,97776
2018-12-07T22:02:00.000Z,97799
2018-12-07T22:07:00.000Z,97810
2018-12-07T22:12:00.000Z,97825
2018-12-07T22:17:00.000Z,97847
2018-12-07T22:22:00.000Z,97870
2018-12-07T22:27:00.000Z,97899
2018-12-07T22:32:00.000Z,97944
2018-12-07T22:37:00.000Z,97913
2018-12-07T22:42:00.000Z,97933
2018-12-07T22:47:00.000Z,97872
2018-12-07T22:52:00.000Z,97903
2018-12-07T22:57:00.000Z,97907
2018-12-07T23:02:00.000Z,97871
2018-12-07T23:07:00.000Z,97874
2018-12-07T23:12:00.000Z,97881
2018-12-07T23:17:00.000Z,97894
2018-12-07T23:22:00.000Z,97893
2018-12-07T23:27:00.000Z,97875
2018-12-07T23:32:00.000Z,97863
2018-12-07T23:37:00.000Z,97844
2018-12-07T23:42:00.000Z,97846
2018-12-07T23:47:00.000Z,97858
2018-12-07T23:52:00.000Z,97858
2018-12-07T23:57:00.000Z,97852
